Time;durP1;ratioP1;P1;durP2;ratioP2;P2;SDS_P1;SDS_P2;PMS_P1;PMS_P2;Temp;Humidity;BMP_temperature;BMP_pressure;BME280_temperature;BME280_humidity;BME280_pressure;Samples;Min_cycle;Max_cycle;Signal;HPM_P1;HPM_P2
2020/12/07 00:00:43;;;;;;;;;;;5.10;99.90;;;;;;5072191;28;19916;-82
2020/12/07 00:03:08;;;;;;;;;;;5.10;99.90;;;;;;5072431;28;20450;-82
2020/12/07 00:05:36;;;;;;;;;;;5.10;99.90;;;;;;5072743;28;19954;-81
2020/12/07 00:08:11;;;;;;;;;;;5.20;99.90;;;;;;5072320;28;19923;-82
2020/12/07 00:10:39;;;;;;;;;;;5.10;99.90;;;;;;5072501;28;19919;-82
2020/12/07 00:13:07;;;;;;;;;;;5.20;99.90;;;;;;5073794;28;20376;-81
2020/12/07 00:15:35;;;;;;;;;;;5.10;99.90;;;;;;5072553;28;19928;-82
2020/12/07 00:18:06;;;;;;;;;;;5.20;99.90;;;;;;5072633;28;19962;-82
2020/12/07 00:20:32;;;;;;;;;;;5.10;99.90;;;;;;5069682;28;19924;-83
2020/12/07 00:22:57;;;;;;;;;;;5.20;99.90;;;;;;5072654;28;19909;-82
2020/12/07 00:25:23;;;;;;;;;;;5.10;99.90;;;;;;5073660;28;19916;-82
2020/12/07 00:27:58;;;;;;;;;;;5.10;99.90;;;;;;5073434;28;19908;-82
2020/12/07 00:30:23;;;;;;;;;;;5.20;99.90;;;;;;5072294;28;20339;-82
2020/12/07 00:32:51;;;;;;;;;;;5.20;99.90;;;;;;5072281;28;19955;-81
2020/12/07 00:35:20;;;;;;;;;;;5.20;99.90;;;;;;5072381;28;19912;-81
2020/12/07 00:37:45;;;;;;;;;;;5.20;99.90;;;;;;5072481;28;19909;-82
2020/12/07 00:40:11;;;;;;;;;;;5.20;99.90;;;;;;5073189;28;19909;-82
2020/12/07 00:42:36;;;;;;;;;;;5.20;99.90;;;;;;5074616;28;19944;-82
2020/12/07 00:45:02;;;;;;;;;;;5.20;99.90;;;;;;5075718;28;20026;-81
2020/12/07 00:47:41;;;;;;;;;;;5.20;99.90;;;;;;5077132;28;19908;-81
2020/12/07 00:50:07;;;;;;;;;;;5.20;99.90;;;;;;5077272;28;20345;-82
2020/12/07 00:52:33;;;;;;;;;;;5.30;99.90;;;;;;5077495;28;19909;-82
2020/12/07 00:54:59;;;;;;;;;;;5.20;99.90;;;;;;5075359;28;19909;-82
2020/12/07 00:57:27;;;;;;;;;;;5.30;99.90;;;;;;5075861;28;20375;-81
2020/12/07 00:59:53;;;;;;;;;;;5.30;99.90;;;;;;5075396;28;19908;-81
2020/12/07 01:02:18;;;;;;;;;;;5.20;99.90;;;;;;5075431;28;19916;-82
2020/12/07 01:04:44;;;;;;;;;;;5.30;99.90;;;;;;5076361;28;19914;-82
2020/12/07 01:07:09;;;;;;;;;;;5.20;99.90;;;;;;5072340;28;19916;-83
2020/12/07 01:09:36;;;;;;;;;;;5.20;99.90;;;;;;5076427;28;19960;-82
2020/12/07 01:12:09;;;;;;;;;;;5.20;99.90;;;;;;5075041;28;19917;-82
2020/12/07 01:14:35;;;;;;;;;;;5.20;99.90;;;;;;5071909;28;19912;-82
2020/12/07 01:17:00;;;;;;;;;;;5.20;99.90;;;;;;5074887;28;19966;-82
2020/12/07 01:19:26;;;;;;;;;;;5.20;99.90;;;;;;5074686;28;20296;-83
2020/12/07 01:21:53;;;;;;;;;;;5.20;99.90;;;;;;5076041;28;19943;-83
2020/12/07 01:24:18;;;;;;;;;;;5.20;99.90;;;;;;5074269;28;19912;-82
2020/12/07 01:26:46;;;;;;;;;;;5.20;99.90;;;;;;5074593;28;19908;-83
2020/12/07 01:29:12;;;;;;;;;;;5.10;99.90;;;;;;5074597;28;19916;-82
2020/12/07 01:31:38;;;;;;;;;;;5.10;99.90;;;;;;5075017;28;19916;-82
2020/12/07 01:34:03;;;;;;;;;;;5.10;99.90;;;;;;5074718;28;19953;-82
2020/12/07 01:36:29;;;;;;;;;;;5.10;99.90;;;;;;5074628;28;19986;-82
2020/12/07 01:38:55;;;;;;;;;;;5.10;99.90;;;;;;5074325;28;19912;-82
2020/12/07 01:41:21;;;;;;;;;;;5.10;99.90;;;;;;5075944;28;19970;-82
2020/12/07 01:43:47;;;;;;;;;;;5.00;99.90;;;;;;5075538;28;20422;-83
2020/12/07 01:46:18;;;;;;;;;;;5.10;99.90;;;;;;5075656;28;20384;-82
2020/12/07 01:48:44;;;;;;;;;;;5.10;99.90;;;;;;5074489;28;19917;-82
2020/12/07 01:51:09;;;;;;;;;;;5.00;99.90;;;;;;5075689;28;19977;-82
2020/12/07 01:53:35;;;;;;;;;;;5.00;99.90;;;;;;5075517;28;19913;-82
2020/12/07 01:56:00;;;;;;;;;;;5.00;99.90;;;;;;5075645;28;19976;-81
2020/12/07 01:58:28;;;;;;;;;;;5.00;99.90;;;;;;5075625;28;19966;-82
2020/12/07 02:00:54;;;;;;;;;;;5.00;99.90;;;;;;5074425;28;19909;-82
2020/12/07 02:03:20;;;;;;;;;;;4.90;99.90;;;;;;5075884;28;20423;-83
2020/12/07 02:05:49;;;;;;;;;;;4.90;99.90;;;;;;5075655;28;19916;-83
2020/12/07 02:08:18;;;;;;;;;;;4.90;99.90;;;;;;5072143;28;19962;-83
2020/12/07 02:10:45;;;;;;;;;;;4.90;99.90;;;;;;5074246;28;19915;-82
2020/12/07 02:13:13;;;;;;;;;;;4.90;99.90;;;;;;5074148;28;19931;-82
2020/12/07 02:15:39;;;;;;;;;;;4.80;99.90;;;;;;5080405;28;19974;-82
2020/12/07 02:18:07;;;;;;;;;;;4.80;99.90;;;;;;5095014;28;19908;-82
2020/12/07 02:20:33;;;;;;;;;;;4.80;99.90;;;;;;5076599;28;19931;-82
2020/12/07 02:22:59;;;;;;;;;;;4.80;99.90;;;;;;5077481;28;20006;-82
2020/12/07 02:25:25;;;;;;;;;;;4.80;99.90;;;;;;5095022;28;19993;-82
2020/12/07 02:27:56;;;;;;;;;;;4.70;99.90;;;;;;5077037;28;19908;-82
2020/12/07 02:30:24;;;;;;;;;;;4.70;99.90;;;;;;5076563;28;19908;-81
2020/12/07 02:32:53;;;;;;;;;;;4.70;99.90;;;;;;5076448;28;19908;-82
2020/12/07 02:35:19;;;;;;;;;;;4.60;99.90;;;;;;5093559;28;19920;-81
2020/12/07 02:37:45;;;;;;;;;;;4.60;99.90;;;;;;5100084;28;19931;-82
2020/12/07 02:40:16;;;;;;;;;;;4.60;99.90;;;;;;5095323;28;19973;-82
2020/12/07 02:42:42;;;;;;;;;;;4.60;99.90;;;;;;5076916;28;20353;-82
2020/12/07 02:45:10;;;;;;;;;;;4.60;99.90;;;;;;5078073;28;19912;-82
2020/12/07 02:47:37;;;;;;;;;;;4.60;99.90;;;;;;5095828;28;20353;-81
2020/12/07 02:50:05;;;;;;;;;;;4.70;99.90;;;;;;5094634;28;20395;-82
2020/12/07 02:52:33;;;;;;;;;;;4.60;99.90;;;;;;5094676;28;20418;-82
2020/12/07 02:55:00;;;;;;;;;;;4.60;99.90;;;;;;5094752;28;19915;-81
2020/12/07 02:57:28;;;;;;;;;;;4.70;99.90;;;;;;5076365;28;19908;-82
2020/12/07 02:59:54;;;;;;;;;;;4.70;99.90;;;;;;5076508;28;19909;-81
2020/12/07 03:02:28;;;;;;;;;;;4.70;99.90;;;;;;5076335;28;19919;-81
2020/12/07 03:05:00;;;;;;;;;;;4.70;99.90;;;;;;5094477;28;19996;-82
2020/12/07 03:07:25;;;;;;;;;;;4.70;99.90;;;;;;5093575;28;19912;-81
2020/12/07 03:09:51;;;;;;;;;;;4.70;99.90;;;;;;5076128;28;19916;-82
2020/12/07 03:12:16;;;;;;;;;;;4.70;99.90;;;;;;5091160;28;20007;-81
2020/12/07 03:14:42;;;;;;;;;;;4.70;99.90;;;;;;5093975;28;19915;-82
2020/12/07 03:17:07;;;;;;;;;;;4.80;99.90;;;;;;5076334;28;20272;-81
2020/12/07 03:19:33;;;;;;;;;;;4.70;99.90;;;;;;5076186;28;20443;-82
2020/12/07 03:21:58;;;;;;;;;;;4.80;99.90;;;;;;5094330;28;19953;-81
2020/12/07 03:24:24;;;;;;;;;;;4.70;99.90;;;;;;5076100;28;19960;-81
2020/12/07 03:26:50;;;;;;;;;;;4.80;99.90;;;;;;5075934;28;19983;-82
2020/12/07 03:29:15;;;;;;;;;;;4.80;99.90;;;;;;5075657;28;19976;-81
2020/12/07 03:31:41;;;;;;;;;;;4.80;99.90;;;;;;5094292;28;19916;-81
2020/12/07 03:34:07;;;;;;;;;;;4.80;99.90;;;;;;5094129;28;19919;-81
2020/12/07 03:36:33;;;;;;;;;;;4.80;99.90;;;;;;5076188;28;20360;-81
2020/12/07 03:39:01;;;;;;;;;;;4.80;99.90;;;;;;5093830;28;19915;-81
2020/12/07 03:41:26;;;;;;;;;;;4.80;99.90;;;;;;5075994;28;19912;-81
2020/12/07 03:43:52;;;;;;;;;;;4.90;99.90;;;;;;5075506;28;20358;-81
2020/12/07 03:46:18;;;;;;;;;;;4.80;99.90;;;;;;5075906;28;19908;-81
2020/12/07 03:48:43;;;;;;;;;;;4.80;99.90;;;;;;5076178;28;19923;-81
2020/12/07 03:51:11;;;;;;;;;;;4.80;99.90;;;;;;5087296;28;19908;-81
2020/12/07 03:53:38;;;;;;;;;;;4.80;99.90;;;;;;5075870;28;19912;-81
2020/12/07 03:56:06;;;;;;;;;;;4.90;99.90;;;;;;5093573;28;19950;-81
2020/12/07 03:58:39;;;;;;;;;;;4.80;99.90;;;;;;5075170;28;19915;-81
2020/12/07 04:01:05;;;;;;;;;;;4.90;99.90;;;;;;5075780;28;19912;-81
2020/12/07 04:03:31;;;;;;;;;;;4.90;99.90;;;;;;5072722;28;19964;-81
2020/12/07 04:06:44;;;;;;;;;;;4.90;99.90;;;;;;5093788;28;19934;-80
2020/12/07 04:08:49;;;;;;;;;;;4.90;99.90;;;;;;5082476;28;19916;-81
2020/12/07 04:11:23;;;;;;;;;;;4.90;99.90;;;;;;5075497;28;19912;-80
2020/12/07 04:13:48;;;;;;;;;;;4.90;99.90;;;;;;5075726;28;19935;-80
2020/12/07 04:16:14;;;;;;;;;;;4.90;99.90;;;;;;5100845;28;20353;-81
2020/12/07 04:18:42;;;;;;;;;;;4.90;99.90;;;;;;5078321;28;19908;-80
2020/12/07 04:21:08;;;;;;;;;;;4.90;99.90;;;;;;5080544;28;19967;-80
2020/12/07 04:23:36;;;;;;;;;;;4.90;99.90;;;;;;5079496;28;19947;-81
2020/12/07 04:26:02;;;;;;;;;;;4.90;99.90;;;;;;5097896;28;19961;-80
2020/12/07 04:28:30;;;;;;;;;;;4.90;99.90;;;;;;5078940;28;19916;-80
2020/12/07 04:30:55;;;;;;;;;;;4.90;99.90;;;;;;5078730;28;19909;-80
2020/12/07 04:33:21;;;;;;;;;;;4.90;99.90;;;;;;5078816;28;19908;-80
2020/12/07 04:35:52;;;;;;;;;;;4.80;99.90;;;;;;5078664;28;19919;-80
2020/12/07 04:38:18;;;;;;;;;;;4.90;99.90;;;;;;5096568;28;20322;-80
2020/12/07 04:40:50;;;;;;;;;;;4.90;99.90;;;;;;5096788;28;19914;-80
2020/12/07 04:43:16;;;;;;;;;;;4.90;99.90;;;;;;5078519;28;19909;-81
2020/12/07 04:45:41;;;;;;;;;;;4.90;99.90;;;;;;5078724;28;19970;-80
2020/12/07 04:48:08;;;;;;;;;;;4.80;99.90;;;;;;5096540;28;19924;-81
2020/12/07 04:50:35;;;;;;;;;;;4.90;99.90;;;;;;5078300;28;19954;-81
2020/12/07 04:53:01;;;;;;;;;;;4.90;99.90;;;;;;5078522;28;20250;-80
2020/12/07 04:55:29;;;;;;;;;;;4.90;99.90;;;;;;5078705;28;19958;-80
2020/12/07 04:57:55;;;;;;;;;;;4.90;99.90;;;;;;5078212;28;19915;-81
2020/12/07 05:00:24;;;;;;;;;;;4.90;99.90;;;;;;5078228;28;19919;-80
2020/12/07 05:02:52;;;;;;;;;;;4.90;99.90;;;;;;5096388;28;19915;-80
2020/12/07 05:05:18;;;;;;;;;;;4.90;99.90;;;;;;5078161;28;19915;-81
2020/12/07 05:07:50;;;;;;;;;;;4.90;99.90;;;;;;5078166;28;19908;-81
2020/12/07 05:10:38;;;;;;;;;;;4.90;99.90;;;;;;5095884;28;19915;-81
2020/12/07 05:13:34;;;;;;;;;;;4.90;99.90;;;;;;5092745;28;20302;-80
2020/12/07 05:16:02;;;;;;;;;;;4.90;99.90;;;;;;5074552;28;19974;-80
2020/12/07 05:18:31;;;;;;;;;;;4.90;99.90;;;;;;5075316;28;19913;-80
2020/12/07 05:20:57;;;;;;;;;;;4.90;99.90;;;;;;5075020;28;20006;-80
2020/12/07 05:23:23;;;;;;;;;;;4.90;99.90;;;;;;5076110;28;19909;-80
2020/12/07 05:25:49;;;;;;;;;;;4.90;99.90;;;;;;5071556;28;19935;-80
2020/12/07 05:28:26;;;;;;;;;;;4.90;99.90;;;;;;5074966;28;20471;-80
2020/12/07 05:30:52;;;;;;;;;;;4.90;99.90;;;;;;5073821;28;19908;-80
2020/12/07 05:33:18;;;;;;;;;;;4.90;99.90;;;;;;5074088;28;20395;-80
2020/12/07 05:35:53;;;;;;;;;;;4.90;99.90;;;;;;5075582;28;19909;-80
2020/12/07 05:38:33;;;;;;;;;;;4.90;99.90;;;;;;5074197;28;19908;-80
2020/12/07 05:41:10;;;;;;;;;;;4.90;99.90;;;;;;5074141;28;20015;-80
2020/12/07 05:43:36;;;;;;;;;;;4.90;99.90;;;;;;5074094;28;20007;-81
2020/12/07 05:46:02;;;;;;;;;;;4.90;99.90;;;;;;5075360;28;20001;-80
2020/12/07 05:48:29;;;;;;;;;;;4.90;99.90;;;;;;5075442;28;19924;-80
2020/12/07 05:50:55;;;;;;;;;;;5.00;99.90;;;;;;5075559;28;19962;-80
2020/12/07 05:53:25;;;;;;;;;;;5.00;99.90;;;;;;5074878;28;19913;-81
2020/12/07 05:55:57;;;;;;;;;;;5.00;99.90;;;;;;5073787;28;19916;-80
2020/12/07 05:58:27;;;;;;;;;;;5.00;99.90;;;;;;5074078;28;19995;-80
2020/12/07 06:00:54;;;;;;;;;;;5.00;99.90;;;;;;5073752;28;19908;-80
2020/12/07 06:03:23;;;;;;;;;;;5.00;99.90;;;;;;5075207;28;19913;-80
2020/12/07 06:05:48;;;;;;;;;;;5.00;99.90;;;;;;5073388;28;20376;-80
2020/12/07 06:08:27;;;;;;;;;;;5.00;99.90;;;;;;5074263;28;19950;-80
2020/12/07 06:10:56;;;;;;;;;;;5.00;99.90;;;;;;5073876;28;19909;-81
2020/12/07 06:13:27;;;;;;;;;;;5.00;99.90;;;;;;5073779;28;19915;-80
2020/12/07 06:15:54;;;;;;;;;;;5.00;99.90;;;;;;5081181;28;20388;-81
2020/12/07 06:18:27;;;;;;;;;;;5.00;99.90;;;;;;5076678;28;19919;-80
2020/12/07 06:20:56;;;;;;;;;;;5.00;99.90;;;;;;5094196;28;19976;-80
2020/12/07 06:23:31;;;;;;;;;;;5.00;99.90;;;;;;5096643;28;19974;-80
2020/12/07 06:26:00;;;;;;;;;;;5.00;99.90;;;;;;5096827;28;19907;-79
2020/12/07 06:28:27;;;;;;;;;;;5.10;99.90;;;;;;5115037;28;19916;-80
2020/12/07 06:30:52;;;;;;;;;;;5.10;99.90;;;;;;5096830;28;19907;-80
2020/12/07 06:33:19;;;;;;;;;;;5.10;99.90;;;;;;5115090;28;20367;-81
2020/12/07 06:35:46;;;;;;;;;;;5.10;99.90;;;;;;5090457;28;20384;-80
2020/12/07 06:38:11;;;;;;;;;;;5.10;99.90;;;;;;5096919;28;19908;-80
2020/12/07 06:40:37;;;;;;;;;;;5.10;99.90;;;;;;5082659;28;19920;-80
2020/12/07 06:43:16;;;;;;;;;;;5.10;99.90;;;;;;5093749;28;20361;-82
2020/12/07 06:45:44;;;;;;;;;;;5.10;99.90;;;;;;5074930;28;20341;-82
2020/12/07 06:48:14;;;;;;;;;;;5.10;99.90;;;;;;5075892;28;20246;-82
2020/12/07 06:50:49;;;;;;;;;;;5.10;99.90;;;;;;5076823;28;19915;-82
2020/12/07 06:55:53;;;;;;;;;;;5.10;99.90;;;;;;5097726;28;20026;-82
2020/12/07 06:58:33;;;;;;;;;;;5.10;99.90;;;;;;5097260;28;20380;-82
2020/12/07 07:01:09;;;;;;;;;;;5.10;99.90;;;;;;5097837;28;19915;-82
2020/12/07 07:03:45;;;;;;;;;;;5.10;99.90;;;;;;5096799;28;19908;-82
2020/12/07 07:06:10;;;;;;;;;;;5.10;99.90;;;;;;5096192;28;20037;-82
2020/12/07 07:08:37;;;;;;;;;;;5.10;99.90;;;;;;5114316;28;20002;-82
2020/12/07 07:11:03;;;;;;;;;;;5.10;99.90;;;;;;5077370;28;20412;-82
2020/12/07 07:13:31;;;;;;;;;;;5.10;99.90;;;;;;5050720;28;20240;-81
2020/12/07 07:16:06;;;;;;;;;;;5.20;99.90;;;;;;5052911;28;20027;-82
2020/12/07 07:18:42;;;;;;;;;;;5.20;99.90;;;;;;5051652;28;19913;-82
2020/12/07 07:21:07;;;;;;;;;;;5.20;99.90;;;;;;5042449;28;20273;-82
2020/12/07 07:23:44;;;;;;;;;;;5.20;99.90;;;;;;5051103;28;19912;-82
2020/12/07 07:26:17;;;;;;;;;;;5.20;99.90;;;;;;5051586;28;20012;-81
2020/12/07 07:28:44;;;;;;;;;;;5.20;99.90;;;;;;5034535;28;19935;-81
2020/12/07 07:31:16;;;;;;;;;;;5.20;99.90;;;;;;5065692;28;20388;-82
2020/12/07 07:33:46;;;;;;;;;;;5.20;99.90;;;;;;5087875;28;19907;-82
2020/12/07 07:36:26;;;;;;;;;;;5.20;99.90;;;;;;5095688;28;19961;-82
2020/12/07 07:38:55;;;;;;;;;;;5.20;99.90;;;;;;5103369;28;19912;-82
2020/12/07 07:41:27;;;;;;;;;;;5.20;99.90;;;;;;5109140;28;19968;-82
2020/12/07 07:44:04;;;;;;;;;;;5.20;99.90;;;;;;5111909;28;20347;-81
2020/12/07 07:46:32;;;;;;;;;;;5.20;99.90;;;;;;5093299;28;19951;-82
2020/12/07 07:49:33;;;;;;;;;;;5.20;99.90;;;;;;5075496;28;20018;-81
2020/12/07 08:16:59;;;;;;;;;;;5.10;99.90;;;;;;5113661;28;19966;-82
2020/12/07 08:19:34;;;;;;;;;;;5.10;99.90;;;;;;5100369;28;20280;-80
2020/12/07 08:22:17;;;;;;;;;;;5.10;99.90;;;;;;5079092;28;19912;-80
2020/12/07 08:25:17;;;;;;;;;;;5.10;99.90;;;;;;5095198;28;19908;-80
2020/12/07 08:27:42;;;;;;;;;;;5.10;99.90;;;;;;5078967;28;19931;-80
2020/12/07 08:30:08;;;;;;;;;;;5.10;99.90;;;;;;5078422;28;19916;-81
2020/12/07 08:32:37;;;;;;;;;;;5.10;99.90;;;;;;5079166;28;19908;-80
2020/12/07 08:35:12;;;;;;;;;;;5.10;99.90;;;;;;5096990;28;19916;-80
2020/12/07 08:37:52;;;;;;;;;;;5.10;99.90;;;;;;5096863;28;20384;-80
2020/12/07 08:40:28;;;;;;;;;;;5.10;99.90;;;;;;5078999;28;19912;-80
2020/12/07 08:42:56;;;;;;;;;;;5.10;99.90;;;;;;5097174;28;19931;-80
2020/12/07 08:45:24;;;;;;;;;;;5.10;99.90;;;;;;5078773;28;20344;-81
2020/12/07 08:47:55;;;;;;;;;;;5.10;99.90;;;;;;5096583;28;19908;-80
2020/12/07 08:50:24;;;;;;;;;;;5.10;99.90;;;;;;5078502;28;19981;-81
2020/12/07 08:52:49;;;;;;;;;;;5.10;99.90;;;;;;5078487;28;19916;-81
2020/12/07 08:55:18;;;;;;;;;;;5.10;99.90;;;;;;5075107;28;19912;-81
2020/12/07 08:57:46;;;;;;;;;;;5.20;99.90;;;;;;5078639;28;19958;-82
2020/12/07 09:00:14;;;;;;;;;;;5.10;99.90;;;;;;5078211;28;19908;-82
2020/12/07 09:02:59;;;;;;;;;;;5.10;99.90;;;;;;5096623;28;19915;-83
2020/12/07 09:05:25;;;;;;;;;;;5.10;99.90;;;;;;5080517;28;19994;-82
2020/12/07 09:07:50;;;;;;;;;;;5.20;99.90;;;;;;5085887;28;19999;-81
2020/12/07 09:10:16;;;;;;;;;;;5.10;99.90;;;;;;5107333;28;19916;-81
2020/12/07 09:12:41;;;;;;;;;;;5.10;99.90;;;;;;5095754;28;19965;-82
2020/12/07 09:15:13;;;;;;;;;;;5.20;99.90;;;;;;5081775;28;19916;-80
2020/12/07 09:17:38;;;;;;;;;;;5.20;99.90;;;;;;5105652;28;19920;-80
2020/12/07 09:20:04;;;;;;;;;;;5.20;99.90;;;;;;5106805;28;19920;-81
2020/12/07 09:22:32;;;;;;;;;;;5.10;99.90;;;;;;5095575;28;19915;-80
2020/12/07 09:24:58;;;;;;;;;;;5.10;99.90;;;;;;5098485;28;19911;-81
2020/12/07 09:27:26;;;;;;;;;;;5.10;99.90;;;;;;5098168;28;19908;-83
2020/12/07 09:29:54;;;;;;;;;;;5.20;99.90;;;;;;5080857;28;19931;-84
2020/12/07 09:32:22;;;;;;;;;;;5.20;99.90;;;;;;5080661;28;19995;-82
2020/12/07 09:34:50;;;;;;;;;;;5.10;99.90;;;;;;5097726;28;19938;-81
2020/12/07 09:37:18;;;;;;;;;;;5.10;99.90;;;;;;5104346;28;19956;-82
2020/12/07 09:39:50;;;;;;;;;;;5.10;99.90;;;;;;5099934;28;19929;-82
2020/12/07 09:42:19;;;;;;;;;;;5.10;99.90;;;;;;5095506;28;19912;-80
2020/12/07 09:44:50;;;;;;;;;;;5.10;99.90;;;;;;5098187;28;19908;-82
2020/12/07 09:47:19;;;;;;;;;;;5.10;99.90;;;;;;5116760;28;19915;-81
2020/12/07 09:49:48;;;;;;;;;;;5.10;99.90;;;;;;5098770;28;19915;-81
2020/12/07 09:52:16;;;;;;;;;;;5.10;99.90;;;;;;5098523;28;19908;-81
2020/12/07 09:54:47;;;;;;;;;;;5.10;99.90;;;;;;5098239;28;19912;-81
2020/12/07 09:57:13;;;;;;;;;;;5.10;99.90;;;;;;5098179;28;19908;-82
2020/12/07 09:59:40;;;;;;;;;;;5.10;99.90;;;;;;5097744;28;19915;-82
2020/12/07 10:02:08;;;;;;;;;;;5.10;99.90;;;;;;5097189;28;19931;-81
2020/12/07 10:04:38;;;;;;;;;;;5.00;99.90;;;;;;5110817;28;19912;-81
2020/12/07 10:07:11;;;;;;;;;;;5.00;99.90;;;;;;5077250;28;19960;-81
2020/12/07 10:09:40;;;;;;;;;;;5.00;99.90;;;;;;5077627;28;19920;-81
2020/12/07 10:12:09;;;;;;;;;;;5.00;99.90;;;;;;5077499;28;19908;-81
2020/12/07 10:14:37;;;;;;;;;;;5.00;99.90;;;;;;5076880;28;19919;-81
2020/12/07 10:17:06;;;;;;;;;;;5.00;99.90;;;;;;5073141;28;20435;-82
2020/12/07 10:19:35;;;;;;;;;;;5.10;99.90;;;;;;5073937;28;19908;-82
2020/12/07 10:22:06;;;;;;;;;;;5.10;99.90;;;;;;5074655;28;19920;-82
2020/12/07 10:24:34;;;;;;;;;;;5.10;99.90;;;;;;5074819;28;19908;-82
2020/12/07 10:27:00;;;;;;;;;;;5.10;99.90;;;;;;5073624;28;19908;-81
2020/12/07 10:29:28;;;;;;;;;;;5.10;99.90;;;;;;5073780;28;20377;-80
2020/12/07 10:32:02;;;;;;;;;;;5.10;99.90;;;;;;5074780;28;20381;-81
2020/12/07 10:34:27;;;;;;;;;;;5.10;99.90;;;;;;5073605;28;19912;-81
2020/12/07 10:36:56;;;;;;;;;;;5.10;99.90;;;;;;5070167;28;19919;-81
2020/12/07 10:39:24;;;;;;;;;;;5.10;99.90;;;;;;5074401;28;19954;-81
2020/12/07 10:42:05;;;;;;;;;;;5.20;99.90;;;;;;5073915;28;19917;-82
2020/12/07 10:44:30;;;;;;;;;;;5.10;99.90;;;;;;5073477;28;20286;-81
2020/12/07 10:47:04;;;;;;;;;;;5.20;99.90;;;;;;5070019;28;20362;-81
2020/12/07 10:49:31;;;;;;;;;;;5.20;99.90;;;;;;5074171;28;19912;-81
2020/12/07 10:52:04;;;;;;;;;;;5.20;99.90;;;;;;5074333;28;19919;-82
2020/12/07 10:54:38;;;;;;;;;;;5.20;99.90;;;;;;5070409;28;19966;-81
2020/12/07 10:57:11;;;;;;;;;;;5.20;99.90;;;;;;5072980;28;20050;-82
2020/12/07 10:59:42;;;;;;;;;;;5.10;99.90;;;;;;5071082;28;20365;-81
2020/12/07 11:02:09;;;;;;;;;;;5.10;99.90;;;;;;5087462;28;19916;-79
2020/12/07 11:04:35;;;;;;;;;;;5.10;99.90;;;;;;5093649;28;19908;-82
2020/12/07 11:07:02;;;;;;;;;;;5.10;99.90;;;;;;5093248;28;19908;-82
2020/12/07 11:09:33;;;;;;;;;;;5.10;99.90;;;;;;5094272;28;20293;-82
2020/12/07 11:12:05;;;;;;;;;;;5.00;99.90;;;;;;5093409;28;19915;-82
2020/12/07 11:14:33;;;;;;;;;;;5.00;99.90;;;;;;5093750;28;19912;-82
2020/12/07 11:17:02;;;;;;;;;;;5.00;99.90;;;;;;5089836;28;19993;-80
2020/12/07 11:19:30;;;;;;;;;;;5.00;99.90;;;;;;5093611;28;19985;-82
2020/12/07 11:21:59;;;;;;;;;;;5.00;99.90;;;;;;5098179;28;19912;-81
2020/12/07 11:24:27;;;;;;;;;;;4.90;99.90;;;;;;5097222;28;19939;-81
2020/12/07 11:27:02;;;;;;;;;;;4.90;99.90;;;;;;5092471;28;19999;-81
2020/12/07 11:29:34;;;;;;;;;;;4.90;99.90;;;;;;5094142;28;20026;-82
2020/12/07 11:32:03;;;;;;;;;;;4.90;99.90;;;;;;5090083;28;19912;-81
2020/12/07 11:34:31;;;;;;;;;;;4.90;99.90;;;;;;5094362;28;19919;-82
2020/12/07 11:37:17;;;;;;;;;;;4.90;99.90;;;;;;5093256;28;20336;-82
2020/12/07 11:40:17;;;;;;;;;;;4.90;99.90;;;;;;5090182;28;20019;-81
2020/12/07 11:45:44;;;;;;;;;;;4.80;99.90;;;;;;5039510;28;19913;-82
2020/12/07 11:48:14;;;;;;;;;;;4.80;99.90;;;;;;5094622;28;19908;-83
2020/12/07 11:50:48;;;;;;;;;;;4.80;99.90;;;;;;5093313;28;19959;-82
2020/12/07 11:53:17;;;;;;;;;;;4.80;99.90;;;;;;5093442;28;20373;-81
2020/12/07 11:55:48;;;;;;;;;;;4.80;99.90;;;;;;5093446;28;20022;-82
2020/12/07 11:58:14;;;;;;;;;;;4.80;99.90;;;;;;5093379;28;19909;-82
2020/12/07 12:00:45;;;;;;;;;;;4.80;99.90;;;;;;5083288;28;19908;-82
2020/12/07 12:03:22;;;;;;;;;;;4.90;99.90;;;;;;5081224;28;19924;-81
2020/12/07 12:05:57;;;;;;;;;;;5.00;99.90;;;;;;5081068;28;19965;-81
2020/12/07 12:08:25;;;;;;;;;;;5.00;99.90;;;;;;5081178;28;19916;-82
2020/12/07 12:10:50;;;;;;;;;;;5.00;99.90;;;;;;5082704;28;19916;-81
2020/12/07 12:13:23;;;;;;;;;;;5.00;99.90;;;;;;5078497;28;19908;-82
2020/12/07 12:15:52;;;;;;;;;;;5.10;99.90;;;;;;5079615;28;20003;-80
2020/12/07 12:18:23;;;;;;;;;;;5.00;99.90;;;;;;5062837;28;19931;-81
2020/12/07 12:20:51;;;;;;;;;;;5.00;99.90;;;;;;5085915;28;19913;-81
2020/12/07 12:23:19;;;;;;;;;;;5.00;99.90;;;;;;5072694;28;19915;-82
2020/12/07 12:25:53;;;;;;;;;;;5.00;99.90;;;;;;5068706;28;20003;-82
2020/12/07 12:28:39;;;;;;;;;;;5.00;99.90;;;;;;5069337;28;19967;-81
2020/12/07 12:31:05;;;;;;;;;;;4.90;99.90;;;;;;5072132;28;20361;-82
2020/12/07 12:33:33;;;;;;;;;;;4.90;99.90;;;;;;5072000;28;19908;-81
2020/12/07 12:35:58;;;;;;;;;;;4.90;99.90;;;;;;5071551;28;19932;-82
2020/12/07 12:38:29;;;;;;;;;;;4.90;99.90;;;;;;5073054;28;20357;-82
2020/12/07 12:40:58;;;;;;;;;;;4.90;99.90;;;;;;5075362;28;20262;-81
2020/12/07 12:43:28;;;;;;;;;;;4.90;99.90;;;;;;5075298;28;19999;-82
2020/12/07 12:46:05;;;;;;;;;;;4.90;99.90;;;;;;5075456;28;19974;-82
2020/12/07 12:48:55;;;;;;;;;;;4.90;99.90;;;;;;5075936;28;19935;-82
2020/12/07 12:51:28;;;;;;;;;;;4.80;99.90;;;;;;5075311;28;19935;-81
2020/12/07 12:53:53;;;;;;;;;;;4.80;99.90;;;;;;5075025;28;19909;-82
2020/12/07 12:56:25;;;;;;;;;;;4.80;99.90;;;;;;5074098;28;20014;-82
2020/12/07 12:58:52;;;;;;;;;;;4.80;99.90;;;;;;5075105;28;19908;-82
2020/12/07 13:01:26;;;;;;;;;;;4.80;99.90;;;;;;5074766;28;19912;-82
2020/12/07 13:03:54;;;;;;;;;;;4.70;99.90;;;;;;5057441;28;19908;-81
2020/12/07 13:06:22;;;;;;;;;;;4.70;99.90;;;;;;5076525;28;19912;-81
2020/12/07 13:08:50;;;;;;;;;;;4.70;99.90;;;;;;5076434;28;19923;-81
2020/12/07 13:11:18;;;;;;;;;;;4.70;99.90;;;;;;5075025;28;20372;-81
2020/12/07 13:13:43;;;;;;;;;;;4.70;99.90;;;;;;5072735;28;19908;-82
2020/12/07 13:16:17;;;;;;;;;;;4.70;99.90;;;;;;5068798;28;19939;-81
2020/12/07 13:18:49;;;;;;;;;;;4.60;99.90;;;;;;5094759;28;19964;-81
2020/12/07 13:21:32;;;;;;;;;;;4.60;99.90;;;;;;5116669;28;19914;-81
2020/12/07 13:24:04;;;;;;;;;;;4.60;99.90;;;;;;5098415;28;20010;-81
2020/12/07 13:29:18;;;;;;;;;;;4.60;99.90;;;;;;5056799;28;19955;-81
2020/12/07 13:31:44;;;;;;;;;;;4.60;99.90;;;;;;5098328;28;20375;-81
2020/12/07 13:34:10;;;;;;;;;;;4.60;99.90;;;;;;5083043;28;19947;-82
2020/12/07 13:36:40;;;;;;;;;;;4.60;99.90;;;;;;5077820;28;19914;-81
2020/12/07 13:39:05;;;;;;;;;;;4.60;99.90;;;;;;5077758;28;19912;-81
2020/12/07 13:41:34;;;;;;;;;;;4.60;99.90;;;;;;5077985;28;19908;-81
2020/12/07 13:44:05;;;;;;;;;;;4.60;99.90;;;;;;5077979;28;19934;-81
2020/12/07 13:46:30;;;;;;;;;;;4.60;99.90;;;;;;5095413;28;20053;-81
2020/12/07 13:48:59;;;;;;;;;;;4.70;99.90;;;;;;5092803;28;19916;-81
2020/12/07 13:51:31;;;;;;;;;;;4.70;99.90;;;;;;5094174;28;19935;-81
2020/12/07 13:54:00;;;;;;;;;;;4.70;99.90;;;;;;5096147;28;19914;-81
2020/12/07 13:56:28;;;;;;;;;;;4.70;99.90;;;;;;5074553;28;19916;-82
2020/12/07 13:58:55;;;;;;;;;;;4.70;99.90;;;;;;5077166;28;19912;-82
2020/12/07 14:01:20;;;;;;;;;;;4.70;99.90;;;;;;5077333;28;19916;-81
2020/12/07 14:04:01;;;;;;;;;;;4.70;99.90;;;;;;5077024;28;20341;-82
2020/12/07 14:06:34;;;;;;;;;;;4.70;99.90;;;;;;5077275;28;19908;-81
2020/12/07 14:09:03;;;;;;;;;;;4.70;99.90;;;;;;5094822;28;19912;-81
2020/12/07 14:11:31;;;;;;;;;;;4.70;99.90;;;;;;5077174;28;20416;-81
2020/12/07 14:13:59;;;;;;;;;;;4.70;99.90;;;;;;5076948;28;19908;-81
2020/12/07 14:16:27;;;;;;;;;;;4.70;99.90;;;;;;5076302;28;19926;-81
2020/12/07 14:24:39;;;;;;;;;;;4.60;99.90;;;;;;5097793;28;19919;-81
2020/12/07 14:40:28;;;;;;;;;;;4.40;99.90;;;;;;5103505;28;19934;-81
2020/12/07 14:42:57;;;;;;;;;;;4.40;99.90;;;;;;5102897;28;20312;-81
2020/12/07 14:45:29;;;;;;;;;;;4.40;99.90;;;;;;5115261;28;19969;-81
2020/12/07 14:48:16;;;;;;;;;;;4.40;99.90;;;;;;5077126;28;19912;-81
2020/12/07 14:50:57;;;;;;;;;;;4.40;99.90;;;;;;5107274;28;19920;-81
2020/12/07 14:53:33;;;;;;;;;;;4.40;99.90;;;;;;5092319;28;20432;-80
2020/12/07 15:07:04;;;;;;;;;;;4.40;99.90;;;;;;5096973;28;19961;-81
2020/12/07 15:14:56;;;;;;;;;;;4.40;99.90;;;;;;5094513;28;19908;-81
2020/12/07 15:17:21;;;;;;;;;;;4.40;99.90;;;;;;5075777;28;20050;-82
2020/12/07 15:19:54;;;;;;;;;;;4.40;99.90;;;;;;5093484;28;19923;-81
2020/12/07 15:22:20;;;;;;;;;;;4.30;99.90;;;;;;5081051;28;19916;-81
2020/12/07 15:24:48;;;;;;;;;;;4.30;99.90;;;;;;5094208;28;19908;-81
2020/12/07 15:27:19;;;;;;;;;;;4.30;99.90;;;;;;5078141;28;19908;-81
2020/12/07 15:29:44;;;;;;;;;;;4.30;99.90;;;;;;5095921;28;19916;-81
2020/12/07 15:32:16;;;;;;;;;;;4.30;99.90;;;;;;5114424;28;19953;-81
2020/12/07 15:34:41;;;;;;;;;;;4.20;99.90;;;;;;5096101;28;20344;-81
2020/12/07 15:37:09;;;;;;;;;;;4.20;99.90;;;;;;5099272;28;19912;-81
2020/12/07 15:39:34;;;;;;;;;;;4.20;99.90;;;;;;5076270;28;19908;-81
2020/12/07 15:42:09;;;;;;;;;;;4.20;99.90;;;;;;5090481;28;19919;-82
2020/12/07 15:44:35;;;;;;;;;;;4.00;99.90;;;;;;5075966;28;19909;-81
2020/12/07 15:47:08;;;;;;;;;;;4.00;99.90;;;;;;5078240;28;20046;-82
2020/12/07 15:49:36;;;;;;;;;;;3.90;99.90;;;;;;5093496;28;19927;-82
2020/12/07 15:52:05;;;;;;;;;;;3.90;99.90;;;;;;5015538;28;19917;-82